WA0GMH-1 Weather Reports


Display with metric or nautical units.
time (UTC)temp
F
wind
direction
speed
MPH
gust
MPH
rain 1hr
in
rain 24hr
in
rain mn
in
humidity
%
barometer
mb
20180526173132 89 270 0.0 0.0 0.00 0.00 0.00 52 1009.2
20180526172130 89 270 0.0 0.0 0.00 0.00 0.00 53 1009.3
20180526171128 88 270 0.0 0.0 0.00 0.00 0.00 53 1009.3
20180526170125 88 270 0.0 0.0 0.00 0.00 0.00 54 1009.6
20180526165123 87 270 0.0 0.0 0.00 0.00 0.00 54 1009.6
20180526164120 87 270 0.0 0.0 0.00 0.00 0.00 56 1009.6
20180526163118 86 270 0.0 0.0 0.00 0.00 0.00 57 1009.8
20180526162115 86 270 0.0 0.0 0.00 0.00 0.00 59 1009.8
20180526161113 85 270 0.0 0.0 0.00 0.00 0.00 61 1009.8
20180526160111 85 270 0.0 0.0 0.00 0.00 0.00 63 1009.9
20180526155109 84 270 0.0 0.0 0.00 0.00 0.00 65 1009.8
20180526154106 83 270 0.0 0.0 0.00 0.00 0.00 68 1009.7
20180526153104 83 270 0.0 0.0 0.00 0.00 0.00 69 1009.9
20180526150057 81 270 0.0 0.0 0.00 0.00 0.00 75 1009.9
20180526145055 81 270 0.0 0.0 0.00 0.00 0.00 77 1009.9
20180526144052 80 270 0.0 0.0 0.00 0.00 0.00 77 1009.8
20180526142047 78 270 0.0 0.0 0.00 0.00 0.00 80 1009.8
20180526140042 77 270 0.0 0.0 0.00 0.00 0.00 82 1009.9
20180526135040 76 270 0.0 0.0 0.00 0.00 0.00 81 1009.8
20180526134038 76 270 0.0 0.0 0.00 0.00 0.00 81 1009.7
20180526132033 75 270 0.0 0.0 0.00 0.00 0.00 79 1009.5
20180526131031 74 270 0.0 0.0 0.00 0.00 0.00 79 1009.5
20180526130028 74 270 0.0 0.0 0.00 0.00 0.00 78 1009.5
20180526125026 73 270 0.0 0.0 0.00 0.00 0.00 77 1009.3
20180526124023 72 270 0.0 0.0 0.00 0.00 0.00 77 1009.3
20180526121017 71 270 0.0 0.0 0.00 0.00 0.00 75 1009.1
20180526120014 70 270 0.0 0.0 0.00 0.00 0.00 74 1009.0
20180526114009 70 270 0.0 0.0 0.00 0.00 0.00 73 1008.9
20180526112005 70 270 0.0 0.0 0.00 0.00 0.00 71 1008.8
20180526110000 71 270 0.0 0.0 0.00 0.00 0.00 70 1008.7
20180526103955 72 270 0.0 0.0 0.00 0.00 0.00 69 1008.5
20180526102953 72 270 0.0 0.0 0.00 0.00 0.00 69 1008.5
20180526101950 72 270 0.0 0.0 0.00 0.00 0.00 69 1008.5
20180526100949 72 270 0.0 0.0 0.00 0.00 0.00 70 1008.4
20180526095946 72 270 0.0 0.0 0.00 0.00 0.00 69 1008.3
20180526093941 73 270 0.0 0.0 0.00 0.00 0.00 67 1008.4
20180526092939 74 270 0.0 0.0 0.00 0.00 0.00 67 1008.3
20180526091936 74 270 0.0 0.0 0.00 0.00 0.00 67 1008.4
20180526085932 74 270 0.0 0.0 0.00 0.00 0.00 67 1008.5
20180526084930 74 270 0.0 0.0 0.00 0.00 0.00 66 1008.4
20180526083927 74 270 0.0 0.0 0.00 0.00 0.00 65 1008.2
20180526081922 75 270 0.0 0.0 0.00 0.00 0.00 64 1008.5
20180526075917 75 270 0.0 0.0 0.00 0.00 0.00 64 1008.4
20180526073913 76 270 0.0 0.0 0.00 0.00 0.00 62 1008.5
20180526072911 76 270 0.0 0.0 0.00 0.00 0.00 62 1008.4
20180526071908 76 270 0.0 0.0 0.00 0.00 0.00 62 1008.6
20180526070906 76 270 0.0 0.0 0.00 0.00 0.00 62 1008.6
20180526065903 77 270 0.0 0.0 0.00 0.00 0.00 61 1008.4
20180526063859 77 270 0.0 0.0 0.00 0.00 0.00 61 1008.5
20180526061854 78 270 0.0 0.0 0.00 0.00 0.00 61 1008.5
20180526060852 78 270 0.0 0.0 0.00 0.00 0.00 61 1008.7
20180526055849 78 270 0.0 0.0 0.00 0.00 0.00 60 1008.4
20180526054847 79 270 0.0 0.0 0.00 0.00 0.00 60 1008.5
20180526053844 79 270 0.0 0.0 0.00 0.00 0.00 60 1008.6
20180526052843 80 270 0.0 0.0 0.00 0.00 0.00 60 1008.5
20180526051840 80 270 0.0 0.0 0.00 0.00 0.00 60 1008.6
20180526045835 80 270 0.0 0.0 0.00 0.00 0.00 59 1008.4
20180526043830 81 270 0.0 0.0 0.00 0.00 0.00 58 1008.3
20180526041825 82 270 0.0 0.0 0.00 0.00 0.00 57 1008.4
20180526040824 82 270 0.0 0.0 0.00 0.00 0.00 56 1008.0
20180526035821 83 270 0.0 0.0 0.00 0.00 0.00 55 1008.2
20180526033816 84 270 0.0 0.0 0.00 0.00 0.00 54 1008.2
20180526032814 85 270 0.0 0.0 0.00 0.00 0.00 53 1008.3
20180526031812 86 270 0.0 0.0 0.00 0.00 0.00 53 1008.1
20180526030809 86 270 0.0 0.0 0.00 0.00 0.00 52 1008.0
20180526024805 88 270 0.0 0.0 0.00 0.00 0.00 51 1007.7
20180526023803 89 270 0.0 0.0 0.00 0.00 0.00 51 1007.7
20180526022800 90 270 0.0 0.0 0.00 0.00 0.00 51 1007.6
20180526021757 92 270 0.0 0.0 0.00 0.00 0.00 50 1007.6
20180526020755 94 270 0.0 0.0 0.00 0.00 0.00 48 1007.5
20180526015753 96 270 0.0 0.0 0.00 0.00 0.00 45 1007.7
20180526014751 99 270 0.0 0.0 0.00 0.00 0.00 43 1007.6
20180526013748 103 270 0.0 0.0 0.00 0.00 0.00 41 1007.8
20180526012746 105 270 0.0 0.0 0.00 0.00 0.00 39 1007.3
20180526010741 108 270 0.0 0.0 0.00 0.00 0.00 39 1007.5
20180526005738 108 270 0.0 0.0 0.00 0.00 0.00 39 1007.6
20180526004737 108 270 0.0 0.0 0.00 0.00 0.00 37 1007.5
20180526003734 108 270 0.0 0.0 0.00 0.00 0.00 37 1007.4
20180526002732 109 270 0.0 0.0 0.00 0.00 0.00 35 1007.6
20180526001729 109 270 0.0 0.0 0.00 0.00 0.00 38 1007.6
20180526000727 109 270 0.0 0.0 0.00 0.00 0.00 38 1007.6
20180525235724 108 270 0.0 0.0 0.00 0.00 0.00 38 1007.5
20180525234722 108 270 0.0 0.0 0.00 0.00 0.00 38 1007.5
20180525233720 108 270 0.0 0.0 0.00 0.00 0.00 38 1007.6
20180525232718 108 270 0.0 0.0 0.00 0.00 0.00 39 1007.6
20180525231715 107 270 0.0 0.0 0.00 0.00 0.00 39 1007.7
20180525230713 106 270 0.0 0.0 0.00 0.00 0.00 40 1007.9
20180525225710 106 270 0.0 0.0 0.00 0.00 0.00 41 1007.9
20180525224708 104 270 0.0 0.0 0.00 0.00 0.00 43 1007.7
20180525223706 104 270 0.0 0.0 0.00 0.00 0.00 44 1007.8
20180525222704 102 270 0.0 0.0 0.00 0.00 0.00 44 1007.8
20180525221701 101 270 0.0 0.0 0.00 0.00 0.00 44 1008.2
20180525220659 100 270 0.0 0.0 0.00 0.00 0.00 44 1008.0
20180525215656 99 270 0.0 0.0 0.00 0.00 0.00 47 1007.8
20180525214654 98 270 0.0 0.0 0.00 0.00 0.00 48 1008.1
20180525213651 98 270 0.0 0.0 0.00 0.00 0.00 46 1008.2
20180525212650 97 270 0.0 0.0 0.00 0.00 0.00 46 1008.3
20180525211647 96 270 0.0 0.0 0.00 0.00 0.00 47 1008.7
20180525210645 95 270 0.0 0.0 0.00 0.00 0.00 46 1008.6
20180525205642 95 270 0.0 0.0 0.00 0.00 0.00 45 1008.4
20180525204640 95 270 0.0 0.0 0.00 0.00 0.00 47 1008.4
20180525203637 94 270 0.0 0.0 0.00 0.00 0.00 52 1008.6
20180525202635 94 270 0.0 0.0 0.00 0.00 0.00 53 1008.9
20180525201633 93 270 0.0 0.0 0.00 0.00 0.00 54 1008.9
20180525200631 92 270 0.0 0.0 0.00 0.00 0.00 56 1009.0
20180525195628 92 270 0.0 0.0 0.00 0.00 0.00 58 1009.1
20180525194626 91 270 0.0 0.0 0.00 0.00 0.00 60 1009.1
20180525192621 91 270 0.0 0.0 0.00 0.00 0.00 61 1009.4
20180525191618 90 270 0.0 0.0 0.00 0.00 0.00 61 1009.2
20180525190617 90 270 0.0 0.0 0.00 0.00 0.00 61 1009.3
20180525185614 89 270 0.0 0.0 0.00 0.00 0.00 65 1009.4
20180525183604 88 270 0.0 0.0 0.00 0.00 0.00 67 1009.6
20180525182602 88 270 0.0 0.0 0.00 0.00 0.00 69 1009.8
20180525181559 87 270 0.0 0.0 0.00 0.00 0.00 69 1010.0
20180525180557 87 270 0.0 0.0 0.00 0.00 0.00 69 1010.0
20180525175555 86 270 0.0 0.0 0.00 0.00 0.00 69 1010.0
20180525174553 86 270 0.0 0.0 0.00 0.00 0.00 71 1009.9
20180525173550 85 270 0.0 0.0 0.00 0.00 0.00 71 1010.1